sensor_id;sensor_type;location;lat;lon;timestamp;temperature;humidity
38684;DHT22;24910;53.248;-6.134;2024-02-26T00:00:41;8.80;86.90
38684;DHT22;24910;53.248;-6.134;2024-02-26T00:03:11;8.80;86.90
38684;DHT22;24910;53.248;-6.134;2024-02-26T00:05:40;8.80;86.90
38684;DHT22;24910;53.248;-6.134;2024-02-26T00:08:09;8.80;86.70
38684;DHT22;24910;53.248;-6.134;2024-02-26T00:10:38;8.80;86.80
38684;DHT22;24910;53.248;-6.134;2024-02-26T00:13:07;8.80;86.70
38684;DHT22;24910;53.248;-6.134;2024-02-26T00:15:36;8.80;86.80
38684;DHT22;24910;53.248;-6.134;2024-02-26T00:18:05;8.80;86.70
38684;DHT22;24910;53.248;-6.134;2024-02-26T00:20:36;8.80;86.80
38684;DHT22;24910;53.248;-6.134;2024-02-26T00:23:05;8.80;86.90
38684;DHT22;24910;53.248;-6.134;2024-02-26T00:25:34;8.80;86.70
38684;DHT22;24910;53.248;-6.134;2024-02-26T00:28:04;8.80;86.70
38684;DHT22;24910;53.248;-6.134;2024-02-26T00:30:33;8.80;86.50
38684;DHT22;24910;53.248;-6.134;2024-02-26T00:33:02;8.70;86.30
38684;DHT22;24910;53.248;-6.134;2024-02-26T00:35:31;8.70;86.30
38684;DHT22;24910;53.248;-6.134;2024-02-26T00:38:01;8.70;86.20
38684;DHT22;24910;53.248;-6.134;2024-02-26T00:40:31;8.70;86.20
38684;DHT22;24910;53.248;-6.134;2024-02-26T00:43:00;8.70;86.10
38684;DHT22;24910;53.248;-6.134;2024-02-26T00:45:28;8.60;86.10
38684;DHT22;24910;53.248;-6.134;2024-02-26T00:47:59;8.60;86.10
38684;DHT22;24910;53.248;-6.134;2024-02-26T00:50:32;8.60;86.20
38684;DHT22;24910;53.248;-6.134;2024-02-26T00:53:02;8.60;86.20
38684;DHT22;24910;53.248;-6.134;2024-02-26T00:55:31;8.60;86.20
38684;DHT22;24910;53.248;-6.134;2024-02-26T00:58:00;8.60;86.30
38684;DHT22;24910;53.248;-6.134;2024-02-26T01:00:29;8.60;87.20
38684;DHT22;24910;53.248;-6.134;2024-02-26T01:02:58;8.60;86.40
38684;DHT22;24910;53.248;-6.134;2024-02-26T01:05:28;8.60;86.40
38684;DHT22;24910;53.248;-6.134;2024-02-26T01:07:57;8.60;86.20
38684;DHT22;24910;53.248;-6.134;2024-02-26T01:10:30;8.60;86.20
38684;DHT22;24910;53.248;-6.134;2024-02-26T01:12:59;8.60;86.20
38684;DHT22;24910;53.248;-6.134;2024-02-26T01:15:28;8.70;86.20
38684;DHT22;24910;53.248;-6.134;2024-02-26T01:17:57;8.70;86.30
38684;DHT22;24910;53.248;-6.134;2024-02-26T01:20:26;8.70;86.40
38684;DHT22;24910;53.248;-6.134;2024-02-26T01:22:55;8.70;86.60
38684;DHT22;24910;53.248;-6.134;2024-02-26T01:25:24;8.70;86.60
38684;DHT22;24910;53.248;-6.134;2024-02-26T01:27:55;8.70;86.90
38684;DHT22;24910;53.248;-6.134;2024-02-26T01:30:24;8.70;87.10
38684;DHT22;24910;53.248;-6.134;2024-02-26T01:32:53;8.70;87.30
38684;DHT22;24910;53.248;-6.134;2024-02-26T01:35:22;8.60;87.70
38684;DHT22;24910;53.248;-6.134;2024-02-26T01:37:52;8.60;88.10
38684;DHT22;24910;53.248;-6.134;2024-02-26T01:40:20;8.60;88.40
38684;DHT22;24910;53.248;-6.134;2024-02-26T01:42:50;8.60;88.50
38684;DHT22;24910;53.248;-6.134;2024-02-26T01:45:22;8.50;88.30
38684;DHT22;24910;53.248;-6.134;2024-02-26T01:47:52;8.60;88.30
38684;DHT22;24910;53.248;-6.134;2024-02-26T01:50:23;8.60;88.20
38684;DHT22;24910;53.248;-6.134;2024-02-26T01:52:52;8.50;88.00
38684;DHT22;24910;53.248;-6.134;2024-02-26T01:55:23;8.50;88.10
38684;DHT22;24910;53.248;-6.134;2024-02-26T01:57:52;8.50;88.10
38684;DHT22;24910;53.248;-6.134;2024-02-26T02:00:23;8.50;88.10
38684;DHT22;24910;53.248;-6.134;2024-02-26T02:02:53;8.50;88.20
38684;DHT22;24910;53.248;-6.134;2024-02-26T02:05:23;8.40;88.30
38684;DHT22;24910;53.248;-6.134;2024-02-26T02:07:53;8.40;88.50
38684;DHT22;24910;53.248;-6.134;2024-02-26T02:10:22;8.40;88.60
38684;DHT22;24910;53.248;-6.134;2024-02-26T02:12:53;8.40;88.50
38684;DHT22;24910;53.248;-6.134;2024-02-26T02:15:24;8.40;88.40
38684;DHT22;24910;53.248;-6.134;2024-02-26T02:17:53;8.40;88.40
38684;DHT22;24910;53.248;-6.134;2024-02-26T02:20:25;8.40;88.10
38684;DHT22;24910;53.248;-6.134;2024-02-26T02:22:55;8.40;87.90
38684;DHT22;24910;53.248;-6.134;2024-02-26T02:25:24;8.40;87.90
38684;DHT22;24910;53.248;-6.134;2024-02-26T02:27:53;8.40;87.90
38684;DHT22;24910;53.248;-6.134;2024-02-26T02:30:23;8.30;88.80
38684;DHT22;24910;53.248;-6.134;2024-02-26T02:32:54;8.30;87.90
38684;DHT22;24910;53.248;-6.134;2024-02-26T02:35:25;8.30;88.00
38684;DHT22;24910;53.248;-6.134;2024-02-26T02:37:55;8.30;88.00
38684;DHT22;24910;53.248;-6.134;2024-02-26T02:40:24;8.30;87.90
38684;DHT22;24910;53.248;-6.134;2024-02-26T02:42:53;8.30;87.90
38684;DHT22;24910;53.248;-6.134;2024-02-26T02:45:22;8.30;87.80
38684;DHT22;24910;53.248;-6.134;2024-02-26T02:47:51;8.20;87.80
38684;DHT22;24910;53.248;-6.134;2024-02-26T02:50:20;8.20;87.90
38684;DHT22;24910;53.248;-6.134;2024-02-26T02:52:51;8.20;87.80
38684;DHT22;24910;53.248;-6.134;2024-02-26T02:55:20;8.30;87.90
38684;DHT22;24910;53.248;-6.134;2024-02-26T02:57:49;8.20;87.90
38684;DHT22;24910;53.248;-6.134;2024-02-26T03:00:18;8.30;87.90
38684;DHT22;24910;53.248;-6.134;2024-02-26T03:02:47;8.30;87.90
38684;DHT22;24910;53.248;-6.134;2024-02-26T03:05:16;8.30;87.90
38684;DHT22;24910;53.248;-6.134;2024-02-26T03:07:45;8.20;87.80
38684;DHT22;24910;53.248;-6.134;2024-02-26T03:10:15;8.30;87.70
38684;DHT22;24910;53.248;-6.134;2024-02-26T03:12:45;8.30;87.60
38684;DHT22;24910;53.248;-6.134;2024-02-26T03:15:14;8.30;87.60
38684;DHT22;24910;53.248;-6.134;2024-02-26T03:17:43;8.30;87.50
38684;DHT22;24910;53.248;-6.134;2024-02-26T03:20:12;8.30;87.60
38684;DHT22;24910;53.248;-6.134;2024-02-26T03:22:41;8.30;87.60
38684;DHT22;24910;53.248;-6.134;2024-02-26T03:25:11;8.30;87.50
38684;DHT22;24910;53.248;-6.134;2024-02-26T03:27:41;8.30;87.40
38684;DHT22;24910;53.248;-6.134;2024-02-26T03:30:10;8.30;87.30
38684;DHT22;24910;53.248;-6.134;2024-02-26T03:32:39;8.20;87.30
38684;DHT22;24910;53.248;-6.134;2024-02-26T03:35:08;8.20;87.30
38684;DHT22;24910;53.248;-6.134;2024-02-26T03:37:37;8.20;87.30
38684;DHT22;24910;53.248;-6.134;2024-02-26T03:40:07;8.10;87.20
38684;DHT22;24910;53.248;-6.134;2024-02-26T03:42:36;8.10;87.30
38684;DHT22;24910;53.248;-6.134;2024-02-26T03:45:07;8.10;87.20
38684;DHT22;24910;53.248;-6.134;2024-02-26T03:47:37;8.00;87.20
38684;DHT22;24910;53.248;-6.134;2024-02-26T03:50:07;8.10;87.10
38684;DHT22;24910;53.248;-6.134;2024-02-26T03:52:36;8.10;87.00
38684;DHT22;24910;53.248;-6.134;2024-02-26T03:55:05;8.10;86.90
38684;DHT22;24910;53.248;-6.134;2024-02-26T03:57:34;8.10;86.80
38684;DHT22;24910;53.248;-6.134;2024-02-26T04:00:03;8.10;86.60
38684;DHT22;24910;53.248;-6.134;2024-02-26T04:02:38;8.20;86.50
38684;DHT22;24910;53.248;-6.134;2024-02-26T04:05:09;8.20;86.30
38684;DHT22;24910;53.248;-6.134;2024-02-26T04:07:38;8.20;86.30
38684;DHT22;24910;53.248;-6.134;2024-02-26T04:10:11;8.20;86.30
38684;DHT22;24910;53.248;-6.134;2024-02-26T04:12:40;8.10;86.20
38684;DHT22;24910;53.248;-6.134;2024-02-26T04:15:09;8.10;86.30
38684;DHT22;24910;53.248;-6.134;2024-02-26T04:17:40;8.10;86.40
38684;DHT22;24910;53.248;-6.134;2024-02-26T04:20:12;8.00;86.40
38684;DHT22;24910;53.248;-6.134;2024-02-26T04:22:42;8.00;86.50
38684;DHT22;24910;53.248;-6.134;2024-02-26T04:25:11;7.90;86.30
38684;DHT22;24910;53.248;-6.134;2024-02-26T04:27:40;7.90;86.20
38684;DHT22;24910;53.248;-6.134;2024-02-26T04:30:09;7.80;86.30
38684;DHT22;24910;53.248;-6.134;2024-02-26T04:32:40;7.80;86.40
38684;DHT22;24910;53.248;-6.134;2024-02-26T04:35:09;7.70;86.50
38684;DHT22;24910;53.248;-6.134;2024-02-26T04:37:38;7.70;86.60
38684;DHT22;24910;53.248;-6.134;2024-02-26T04:40:07;7.60;86.50
38684;DHT22;24910;53.248;-6.134;2024-02-26T04:42:37;7.60;86.40
38684;DHT22;24910;53.248;-6.134;2024-02-26T04:45:06;7.60;86.30
38684;DHT22;24910;53.248;-6.134;2024-02-26T04:47:36;7.60;86.40
38684;DHT22;24910;53.248;-6.134;2024-02-26T04:50:07;7.50;86.30
38684;DHT22;24910;53.248;-6.134;2024-02-26T04:52:36;7.50;86.30
38684;DHT22;24910;53.248;-6.134;2024-02-26T04:55:05;7.50;86.40
38684;DHT22;24910;53.248;-6.134;2024-02-26T04:57:34;7.40;86.40
38684;DHT22;24910;53.248;-6.134;2024-02-26T05:00:03;7.40;86.40
38684;DHT22;24910;53.248;-6.134;2024-02-26T05:02:33;7.40;86.50
38684;DHT22;24910;53.248;-6.134;2024-02-26T05:05:07;7.40;86.50
38684;DHT22;24910;53.248;-6.134;2024-02-26T05:07:39;7.30;86.50
38684;DHT22;24910;53.248;-6.134;2024-02-26T05:10:08;7.30;86.50
38684;DHT22;24910;53.248;-6.134;2024-02-26T05:12:37;7.30;86.40
38684;DHT22;24910;53.248;-6.134;2024-02-26T05:15:06;7.20;86.50
38684;DHT22;24910;53.248;-6.134;2024-02-26T05:17:35;7.20;86.30
38684;DHT22;24910;53.248;-6.134;2024-02-26T05:20:05;7.20;86.20
38684;DHT22;24910;53.248;-6.134;2024-02-26T05:22:37;7.20;86.10
38684;DHT22;24910;53.248;-6.134;2024-02-26T05:25:06;7.20;86.20
38684;DHT22;24910;53.248;-6.134;2024-02-26T05:27:35;7.20;86.30
38684;DHT22;24910;53.248;-6.134;2024-02-26T05:30:04;7.10;86.20
38684;DHT22;24910;53.248;-6.134;2024-02-26T05:32:34;7.10;86.10
38684;DHT22;24910;53.248;-6.134;2024-02-26T05:35:03;7.10;86.10
38684;DHT22;24910;53.248;-6.134;2024-02-26T05:37:32;7.00;86.00
38684;DHT22;24910;53.248;-6.134;2024-02-26T05:40:03;7.00;86.20
38684;DHT22;24910;53.248;-6.134;2024-02-26T05:42:32;7.00;86.20
38684;DHT22;24910;53.248;-6.134;2024-02-26T05:45:01;7.00;86.20
38684;DHT22;24910;53.248;-6.134;2024-02-26T05:47:33;6.90;86.10
38684;DHT22;24910;53.248;-6.134;2024-02-26T05:50:03;6.90;86.10
38684;DHT22;24910;53.248;-6.134;2024-02-26T05:52:32;6.90;86.10
38684;DHT22;24910;53.248;-6.134;2024-02-26T05:55:00;6.90;86.10
38684;DHT22;24910;53.248;-6.134;2024-02-26T05:57:31;6.90;86.10
38684;DHT22;24910;53.248;-6.134;2024-02-26T06:00:00;6.80;87.00
38684;DHT22;24910;53.248;-6.134;2024-02-26T06:02:40;6.80;86.30
38684;DHT22;24910;53.248;-6.134;2024-02-26T06:05:09;6.80;86.20
38684;DHT22;24910;53.248;-6.134;2024-02-26T06:07:38;6.80;86.20
38684;DHT22;24910;53.248;-6.134;2024-02-26T06:10:08;6.80;86.20
38684;DHT22;24910;53.248;-6.134;2024-02-26T06:12:38;6.80;86.30
38684;DHT22;24910;53.248;-6.134;2024-02-26T06:15:08;6.70;86.30
38684;DHT22;24910;53.248;-6.134;2024-02-26T06:17:37;6.70;86.30
38684;DHT22;24910;53.248;-6.134;2024-02-26T06:20:06;6.70;86.30
38684;DHT22;24910;53.248;-6.134;2024-02-26T06:22:40;6.70;86.30
38684;DHT22;24910;53.248;-6.134;2024-02-26T06:25:09;6.70;86.40
38684;DHT22;24910;53.248;-6.134;2024-02-26T06:27:39;6.60;86.40
38684;DHT22;24910;53.248;-6.134;2024-02-26T06:30:09;6.60;86.50
38684;DHT22;24910;53.248;-6.134;2024-02-26T06:32:39;6.60;86.60
38684;DHT22;24910;53.248;-6.134;2024-02-26T06:35:08;6.50;86.50
38684;DHT22;24910;53.248;-6.134;2024-02-26T06:37:39;6.50;86.60
38684;DHT22;24910;53.248;-6.134;2024-02-26T06:40:08;6.50;86.70
38684;DHT22;24910;53.248;-6.134;2024-02-26T06:42:37;6.50;86.70
38684;DHT22;24910;53.248;-6.134;2024-02-26T06:45:08;6.50;86.70
38684;DHT22;24910;53.248;-6.134;2024-02-26T06:47:37;6.50;86.60
38684;DHT22;24910;53.248;-6.134;2024-02-26T06:50:06;6.50;86.40
38684;DHT22;24910;53.248;-6.134;2024-02-26T06:52:35;6.50;86.40
38684;DHT22;24910;53.248;-6.134;2024-02-26T06:55:04;6.50;86.40
38684;DHT22;24910;53.248;-6.134;2024-02-26T06:57:36;6.50;86.40
38684;DHT22;24910;53.248;-6.134;2024-02-26T07:00:05;6.50;86.30
38684;DHT22;24910;53.248;-6.134;2024-02-26T07:02:36;6.50;86.30
38684;DHT22;24910;53.248;-6.134;2024-02-26T07:05:07;6.50;86.20
38684;DHT22;24910;53.248;-6.134;2024-02-26T07:07:36;6.50;86.20
38684;DHT22;24910;53.248;-6.134;2024-02-26T07:10:05;6.50;86.30
38684;DHT22;24910;53.248;-6.134;2024-02-26T07:12:34;6.50;86.30
38684;DHT22;24910;53.248;-6.134;2024-02-26T07:15:03;6.50;86.20
38684;DHT22;24910;53.248;-6.134;2024-02-26T07:17:36;6.50;86.20
38684;DHT22;24910;53.248;-6.134;2024-02-26T07:20:10;6.40;86.30
38684;DHT22;24910;53.248;-6.134;2024-02-26T07:22:39;6.50;86.30
38684;DHT22;24910;53.248;-6.134;2024-02-26T07:25:09;6.50;86.30
38684;DHT22;24910;53.248;-6.134;2024-02-26T07:27:41;6.50;86.10
38684;DHT22;24910;53.248;-6.134;2024-02-26T07:30:10;6.50;86.10
38684;DHT22;24910;53.248;-6.134;2024-02-26T07:32:41;6.50;86.20
38684;DHT22;24910;53.248;-6.134;2024-02-26T07:35:10;6.50;86.20
38684;DHT22;24910;53.248;-6.134;2024-02-26T07:37:39;6.50;86.10
38684;DHT22;24910;53.248;-6.134;2024-02-26T07:40:08;6.50;86.10
38684;DHT22;24910;53.248;-6.134;2024-02-26T07:42:37;6.50;86.10
38684;DHT22;24910;53.248;-6.134;2024-02-26T07:45:07;6.50;86.20
38684;DHT22;24910;53.248;-6.134;2024-02-26T07:47:36;6.40;86.20
38684;DHT22;24910;53.248;-6.134;2024-02-26T07:50:10;6.40;86.30
38684;DHT22;24910;53.248;-6.134;2024-02-26T07:52:40;6.40;86.30
38684;DHT22;24910;53.248;-6.134;2024-02-26T07:55:09;6.50;86.30
38684;DHT22;24910;53.248;-6.134;2024-02-26T07:57:40;6.50;86.20
38684;DHT22;24910;53.248;-6.134;2024-02-26T08:00:10;6.50;86.40
38684;DHT22;24910;53.248;-6.134;2024-02-26T08:02:39;6.50;86.40
38684;DHT22;24910;53.248;-6.134;2024-02-26T08:05:10;6.40;86.50
38684;DHT22;24910;53.248;-6.134;2024-02-26T08:07:39;6.40;86.70
38684;DHT22;24910;53.248;-6.134;2024-02-26T08:10:08;6.50;86.70
38684;DHT22;24910;53.248;-6.134;2024-02-26T08:12:37;6.50;86.70
38684;DHT22;24910;53.248;-6.134;2024-02-26T08:15:06;6.60;86.80
38684;DHT22;24910;53.248;-6.134;2024-02-26T08:17:35;6.60;86.80
38684;DHT22;24910;53.248;-6.134;2024-02-26T08:20:05;6.70;86.90
38684;DHT22;24910;53.248;-6.134;2024-02-26T08:22:36;6.80;86.90
38684;DHT22;24910;53.248;-6.134;2024-02-26T08:25:06;6.90;86.80
38684;DHT22;24910;53.248;-6.134;2024-02-26T08:27:37;7.00;86.70
38684;DHT22;24910;53.248;-6.134;2024-02-26T08:30:06;7.10;86.60
38684;DHT22;24910;53.248;-6.134;2024-02-26T08:32:36;7.20;86.50
38684;DHT22;24910;53.248;-6.134;2024-02-26T08:35:05;7.30;86.40
38684;DHT22;24910;53.248;-6.134;2024-02-26T08:37:35;7.40;86.30
38684;DHT22;24910;53.248;-6.134;2024-02-26T08:40:05;7.40;86.20
38684;DHT22;24910;53.248;-6.134;2024-02-26T08:42:38;7.50;86.10
38684;DHT22;24910;53.248;-6.134;2024-02-26T08:45:07;7.60;86.00
38684;DHT22;24910;53.248;-6.134;2024-02-26T08:47:36;7.70;86.00
38684;DHT22;24910;53.248;-6.134;2024-02-26T08:50:06;7.80;85.80
38684;DHT22;24910;53.248;-6.134;2024-02-26T08:52:38;7.90;85.80
38684;DHT22;24910;53.248;-6.134;2024-02-26T08:55:08;7.90;85.80
38684;DHT22;24910;53.248;-6.134;2024-02-26T08:57:37;8.00;85.70
38684;DHT22;24910;53.248;-6.134;2024-02-26T09:00:06;8.00;85.60
38684;DHT22;24910;53.248;-6.134;2024-02-26T09:02:36;8.10;85.60
38684;DHT22;24910;53.248;-6.134;2024-02-26T09:05:06;8.10;85.60
38684;DHT22;24910;53.248;-6.134;2024-02-26T09:07:35;8.10;85.60
38684;DHT22;24910;53.248;-6.134;2024-02-26T09:10:06;8.20;85.70
38684;DHT22;24910;53.248;-6.134;2024-02-26T09:12:38;8.30;85.60
38684;DHT22;24910;53.248;-6.134;2024-02-26T09:15:08;8.30;85.50
38684;DHT22;24910;53.248;-6.134;2024-02-26T09:17:37;8.40;85.50
38684;DHT22;24910;53.248;-6.134;2024-02-26T09:20:06;8.50;85.40
38684;DHT22;24910;53.248;-6.134;2024-02-26T09:22:36;8.60;85.40
38684;DHT22;24910;53.248;-6.134;2024-02-26T09:25:08;8.60;85.30
38684;DHT22;24910;53.248;-6.134;2024-02-26T09:27:37;8.70;85.30
38684;DHT22;24910;53.248;-6.134;2024-02-26T09:30:10;8.80;85.10
38684;DHT22;24910;53.248;-6.134;2024-02-26T09:32:39;8.90;85.10
38684;DHT22;24910;53.248;-6.134;2024-02-26T09:35:08;9.00;85.00
38684;DHT22;24910;53.248;-6.134;2024-02-26T09:37:37;9.00;84.90
38684;DHT22;24910;53.248;-6.134;2024-02-26T09:40:08;9.10;84.70
38684;DHT22;24910;53.248;-6.134;2024-02-26T09:42:41;9.10;84.60
38684;DHT22;24910;53.248;-6.134;2024-02-26T09:45:12;9.20;84.70
38684;DHT22;24910;53.248;-6.134;2024-02-26T09:47:46;9.40;84.60
38684;DHT22;24910;53.248;-6.134;2024-02-26T09:50:16;9.50;84.40
38684;DHT22;24910;53.248;-6.134;2024-02-26T09:52:50;9.50;84.10
38684;DHT22;24910;53.248;-6.134;2024-02-26T09:55:21;9.60;84.20
38684;DHT22;24910;53.248;-6.134;2024-02-26T09:57:51;9.60;83.90
38684;DHT22;24910;53.248;-6.134;2024-02-26T10:00:21;9.60;84.00
38684;DHT22;24910;53.248;-6.134;2024-02-26T10:02:50;9.60;83.60
38684;DHT22;24910;53.248;-6.134;2024-02-26T10:05:20;9.70;83.50
38684;DHT22;24910;53.248;-6.134;2024-02-26T10:07:50;9.70;83.50
38684;DHT22;24910;53.248;-6.134;2024-02-26T10:10:19;9.60;83.40
38684;DHT22;24910;53.248;-6.134;2024-02-26T10:12:49;9.60;83.90
38684;DHT22;24910;53.248;-6.134;2024-02-26T10:15:18;9.60;83.10
38684;DHT22;24910;53.248;-6.134;2024-02-26T10:17:47;9.60;82.80
38684;DHT22;24910;53.248;-6.134;2024-02-26T10:20:16;9.60;82.80
38684;DHT22;24910;53.248;-6.134;2024-02-26T10:22:47;9.60;82.70
38684;DHT22;24910;53.248;-6.134;2024-02-26T10:25:16;9.60;82.80
38684;DHT22;24910;53.248;-6.134;2024-02-26T10:27:45;9.70;82.40
38684;DHT22;24910;53.248;-6.134;2024-02-26T10:30:18;9.60;82.30
38684;DHT22;24910;53.248;-6.134;2024-02-26T10:32:49;9.70;82.40
38684;DHT22;24910;53.248;-6.134;2024-02-26T10:35:18;9.80;82.30
38684;DHT22;24910;53.248;-6.134;2024-02-26T10:37:49;10.00;82.00
38684;DHT22;24910;53.248;-6.134;2024-02-26T10:40:18;10.00;81.90
38684;DHT22;24910;53.248;-6.134;2024-02-26T10:42:47;10.10;81.80
38684;DHT22;24910;53.248;-6.134;2024-02-26T10:45:17;10.10;81.50
38684;DHT22;24910;53.248;-6.134;2024-02-26T10:47:46;10.00;81.20
38684;DHT22;24910;53.248;-6.134;2024-02-26T10:50:15;10.00;81.40
38684;DHT22;24910;53.248;-6.134;2024-02-26T10:52:44;10.00;81.40
38684;DHT22;24910;53.248;-6.134;2024-02-26T10:55:15;10.00;82.30
38684;DHT22;24910;53.248;-6.134;2024-02-26T10:57:46;10.00;81.20
38684;DHT22;24910;53.248;-6.134;2024-02-26T11:00:18;10.00;80.80
38684;DHT22;24910;53.248;-6.134;2024-02-26T11:02:47;10.00;81.10
38684;DHT22;24910;53.248;-6.134;2024-02-26T11:05:17;10.00;80.80
38684;DHT22;24910;53.248;-6.134;2024-02-26T11:07:46;10.10;80.80
38684;DHT22;24910;53.248;-6.134;2024-02-26T11:10:15;10.20;80.20
38684;DHT22;24910;53.248;-6.134;2024-02-26T11:12:45;10.10;79.80
38684;DHT22;24910;53.248;-6.134;2024-02-26T11:15:15;10.00;79.60
38684;DHT22;24910;53.248;-6.134;2024-02-26T11:17:45;10.00;79.50
38684;DHT22;24910;53.248;-6.134;2024-02-26T11:20:15;10.00;79.30
38684;DHT22;24910;53.248;-6.134;2024-02-26T11:22:44;9.90;79.20
38684;DHT22;24910;53.248;-6.134;2024-02-26T11:25:13;9.90;79.00
38684;DHT22;24910;53.248;-6.134;2024-02-26T11:27:44;9.90;78.90
38684;DHT22;24910;53.248;-6.134;2024-02-26T11:30:15;10.00;78.60
38684;DHT22;24910;53.248;-6.134;2024-02-26T11:32:47;9.90;78.20
38684;DHT22;24910;53.248;-6.134;2024-02-26T11:35:16;9.80;78.30
38684;DHT22;24910;53.248;-6.134;2024-02-26T11:37:55;9.80;79.20
38684;DHT22;24910;53.248;-6.134;2024-02-26T11:40:24;9.90;78.10
38684;DHT22;24910;53.248;-6.134;2024-02-26T11:42:54;9.90;77.80
38684;DHT22;24910;53.248;-6.134;2024-02-26T11:45:47;9.90;77.50
38684;DHT22;24910;53.248;-6.134;2024-02-26T11:48:21;9.80;77.70
38684;DHT22;24910;53.248;-6.134;2024-02-26T11:50:51;9.80;77.30
38684;DHT22;24910;53.248;-6.134;2024-02-26T11:53:21;9.80;77.50
38684;DHT22;24910;53.248;-6.134;2024-02-26T11:58:34;9.60;77.60
38684;DHT22;24910;53.248;-6.134;2024-02-26T12:01:03;9.60;77.50
38684;DHT22;24910;53.248;-6.134;2024-02-26T12:03:33;9.60;77.40
38684;DHT22;24910;53.248;-6.134;2024-02-26T12:06:02;9.60;77.30
38684;DHT22;24910;53.248;-6.134;2024-02-26T12:08:34;9.60;77.20
38684;DHT22;24910;53.248;-6.134;2024-02-26T12:11:03;9.60;77.30
38684;DHT22;24910;53.248;-6.134;2024-02-26T12:13:32;9.70;77.00
38684;DHT22;24910;53.248;-6.134;2024-02-26T12:16:02;9.70;76.80
38684;DHT22;24910;53.248;-6.134;2024-02-26T12:18:33;9.70;77.10
38684;DHT22;24910;53.248;-6.134;2024-02-26T12:21:03;9.80;76.80
38684;DHT22;24910;53.248;-6.134;2024-02-26T12:23:33;9.90;76.70
38684;DHT22;24910;53.248;-6.134;2024-02-26T12:26:02;10.00;76.50
38684;DHT22;24910;53.248;-6.134;2024-02-26T12:28:35;10.00;76.30
38684;DHT22;24910;53.248;-6.134;2024-02-26T12:31:05;10.00;75.90
38684;DHT22;24910;53.248;-6.134;2024-02-26T12:33:35;10.00;75.60
38684;DHT22;24910;53.248;-6.134;2024-02-26T12:36:05;10.00;75.90
38684;DHT22;24910;53.248;-6.134;2024-02-26T12:38:34;10.00;75.70
38684;DHT22;24910;53.248;-6.134;2024-02-26T12:41:04;10.10;75.60
38684;DHT22;24910;53.248;-6.134;2024-02-26T12:43:35;10.20;75.80
38684;DHT22;24910;53.248;-6.134;2024-02-26T12:46:04;10.20;75.20
38684;DHT22;24910;53.248;-6.134;2024-02-26T12:48:33;10.30;75.30
38684;DHT22;24910;53.248;-6.134;2024-02-26T12:51:03;10.20;74.70
38684;DHT22;24910;53.248;-6.134;2024-02-26T12:53:33;10.30;74.70
38684;DHT22;24910;53.248;-6.134;2024-02-26T12:56:02;10.20;74.50
38684;DHT22;24910;53.248;-6.134;2024-02-26T12:58:34;10.20;74.50
38684;DHT22;24910;53.248;-6.134;2024-02-26T13:01:06;10.30;74.20
38684;DHT22;24910;53.248;-6.134;2024-02-26T13:03:35;10.20;74.10
38684;DHT22;24910;53.248;-6.134;2024-02-26T13:06:06;10.20;74.00
38684;DHT22;24910;53.248;-6.134;2024-02-26T13:08:35;10.20;74.00
38684;DHT22;24910;53.248;-6.134;2024-02-26T13:11:04;10.20;73.50
38684;DHT22;24910;53.248;-6.134;2024-02-26T13:13:34;10.20;73.40
38684;DHT22;24910;53.248;-6.134;2024-02-26T13:16:03;10.20;73.20
38684;DHT22;24910;53.248;-6.134;2024-02-26T13:18:34;10.20;73.10
38684;DHT22;24910;53.248;-6.134;2024-02-26T13:21:09;10.10;72.70
38684;DHT22;24910;53.248;-6.134;2024-02-26T13:23:39;10.10;72.80
38684;DHT22;24910;53.248;-6.134;2024-02-26T13:26:08;10.10;72.90
38684;DHT22;24910;53.248;-6.134;2024-02-26T13:28:40;10.10;72.80
38684;DHT22;24910;53.248;-6.134;2024-02-26T13:31:09;10.20;72.80
38684;DHT22;24910;53.248;-6.134;2024-02-26T13:33:38;10.20;72.20
38684;DHT22;24910;53.248;-6.134;2024-02-26T13:36:07;10.10;73.10
38684;DHT22;24910;53.248;-6.134;2024-02-26T13:38:40;10.20;71.80
38684;DHT22;24910;53.248;-6.134;2024-02-26T13:41:19;10.20;71.80
38684;DHT22;24910;53.248;-6.134;2024-02-26T13:43:48;10.20;71.80
38684;DHT22;24910;53.248;-6.134;2024-02-26T13:46:17;10.20;71.30
38684;DHT22;24910;53.248;-6.134;2024-02-26T13:48:46;10.10;71.30
38684;DHT22;24910;53.248;-6.134;2024-02-26T13:51:15;10.20;71.80
38684;DHT22;24910;53.248;-6.134;2024-02-26T13:53:46;10.20;71.70
38684;DHT22;24910;53.248;-6.134;2024-02-26T13:56:15;10.20;71.70
38684;DHT22;24910;53.248;-6.134;2024-02-26T13:58:44;10.20;71.90
38684;DHT22;24910;53.248;-6.134;2024-02-26T14:01:13;10.20;71.80
38684;DHT22;24910;53.248;-6.134;2024-02-26T14:03:42;10.20;71.80
38684;DHT22;24910;53.248;-6.134;2024-02-26T14:06:12;10.20;71.80
38684;DHT22;24910;53.248;-6.134;2024-02-26T14:08:41;10.10;71.70
38684;DHT22;24910;53.248;-6.134;2024-02-26T14:11:11;10.20;71.60
38684;DHT22;24910;53.248;-6.134;2024-02-26T14:13:41;10.20;71.70
38684;DHT22;24910;53.248;-6.134;2024-02-26T14:16:12;10.20;71.40
38684;DHT22;24910;53.248;-6.134;2024-02-26T14:18:41;10.10;71.20
38684;DHT22;24910;53.248;-6.134;2024-02-26T14:21:13;10.10;71.30
38684;DHT22;24910;53.248;-6.134;2024-02-26T14:23:42;10.10;71.30
38684;DHT22;24910;53.248;-6.134;2024-02-26T14:26:13;10.20;71.20
38684;DHT22;24910;53.248;-6.134;2024-02-26T14:28:42;10.20;70.90
38684;DHT22;24910;53.248;-6.134;2024-02-26T14:31:11;10.20;70.20
38684;DHT22;24910;53.248;-6.134;2024-02-26T14:33:40;10.20;70.20
38684;DHT22;24910;53.248;-6.134;2024-02-26T14:36:09;10.30;70.00
38684;DHT22;24910;53.248;-6.134;2024-02-26T14:38:38;10.30;69.90
38684;DHT22;24910;53.248;-6.134;2024-02-26T14:41:06;10.30;69.80
38684;DHT22;24910;53.248;-6.134;2024-02-26T14:43:37;10.30;69.80
38684;DHT22;24910;53.248;-6.134;2024-02-26T14:46:06;10.40;70.00
38684;DHT22;24910;53.248;-6.134;2024-02-26T14:48:35;10.40;69.90
38684;DHT22;24910;53.248;-6.134;2024-02-26T14:51:04;10.40;69.90
38684;DHT22;24910;53.248;-6.134;2024-02-26T14:53:34;10.30;69.80
38684;DHT22;24910;53.248;-6.134;2024-02-26T14:56:03;10.20;69.70
38684;DHT22;24910;53.248;-6.134;2024-02-26T14:58:32;10.10;69.40
38684;DHT22;24910;53.248;-6.134;2024-02-26T15:01:02;10.10;69.50
38684;DHT22;24910;53.248;-6.134;2024-02-26T15:03:31;10.20;69.80
38684;DHT22;24910;53.248;-6.134;2024-02-26T15:06:00;10.10;69.70
38684;DHT22;24910;53.248;-6.134;2024-02-26T15:08:30;10.10;69.80
38684;DHT22;24910;53.248;-6.134;2024-02-26T15:11:00;10.10;69.80
38684;DHT22;24910;53.248;-6.134;2024-02-26T15:13:29;10.10;69.80
38684;DHT22;24910;53.248;-6.134;2024-02-26T15:15:58;10.00;69.80
38684;DHT22;24910;53.248;-6.134;2024-02-26T15:18:29;10.00;70.20
38684;DHT22;24910;53.248;-6.134;2024-02-26T15:20:58;10.00;70.30
38684;DHT22;24910;53.248;-6.134;2024-02-26T15:23:27;10.00;70.40
38684;DHT22;24910;53.248;-6.134;2024-02-26T15:25:56;9.90;70.30
38684;DHT22;24910;53.248;-6.134;2024-02-26T15:28:25;9.90;70.60
38684;DHT22;24910;53.248;-6.134;2024-02-26T15:30:54;9.80;70.60
38684;DHT22;24910;53.248;-6.134;2024-02-26T15:33:24;9.80;70.30
38684;DHT22;24910;53.248;-6.134;2024-02-26T15:35:54;9.80;70.60
38684;DHT22;24910;53.248;-6.134;2024-02-26T15:38:23;9.80;70.50
38684;DHT22;24910;53.248;-6.134;2024-02-26T15:40:52;9.80;70.70
38684;DHT22;24910;53.248;-6.134;2024-02-26T15:43:21;9.80;70.70
38684;DHT22;24910;53.248;-6.134;2024-02-26T15:45:50;9.90;70.60